createdAt,value
2022-10-09T00:02:53.332Z,90.54
2022-10-09T00:05:57.459Z,90.11
2022-10-09T00:09:01.767Z,90.28
2022-10-09T00:12:04.786Z,89.87
2022-10-09T00:15:08.437Z,90.14
2022-10-09T00:18:11.684Z,90.39
2022-10-09T00:21:21.996Z,90.08
2022-10-09T00:24:24.649Z,90.45
2022-10-09T00:27:27.356Z,89.96
2022-10-09T00:30:30.241Z,89.48
2022-10-09T00:33:33.054Z,90.60
2022-10-09T00:36:37.021Z,90.92
2022-10-09T00:39:39.691Z,90.73
2022-10-09T00:42:44.693Z,91.13
2022-10-09T00:45:51.871Z,91.04
2022-10-09T00:48:59.895Z,90.50
2022-10-09T00:52:07.499Z,90.86
2022-10-09T00:55:10.616Z,90.67
2022-10-09T00:58:13.956Z,90.68
2022-10-09T01:01:16.717Z,90.25
2022-10-09T01:04:19.495Z,90.90
2022-10-09T01:07:30.733Z,90.92
2022-10-09T01:10:37.704Z,91.23
2022-10-09T01:13:44.132Z,90.86
2022-10-09T01:16:51.780Z,91.01
2022-10-09T01:20:07.274Z,91.31
2022-10-09T01:23:28.090Z,90.90
2022-10-09T01:26:40.628Z,90.80
2022-10-09T01:29:48.448Z,90.90
2022-10-09T01:32:53.065Z,90.37
2022-10-09T01:35:55.779Z,90.68
2022-10-09T01:38:59.965Z,91.46
2022-10-09T01:42:02.996Z,91.65
2022-10-09T01:45:08.100Z,91.64
2022-10-09T01:48:14.088Z,91.22
2022-10-09T01:51:17.391Z,90.66
2022-10-09T01:54:24.491Z,90.96
2022-10-09T01:57:32.154Z,91.17
2022-10-09T02:00:39.502Z,91.61
2022-10-09T02:03:44.326Z,91.59
2022-10-09T02:06:47.365Z,91.16
2022-10-09T02:09:50.146Z,90.55
2022-10-09T02:12:56.264Z,91.00
2022-10-09T02:16:04.253Z,91.16
2022-10-09T02:19:11.004Z,91.53
2022-10-09T02:22:17.662Z,91.07
2022-10-09T02:25:20.440Z,91.05
2022-10-09T02:28:23.587Z,90.69
2022-10-09T02:31:29.411Z,91.35
2022-10-09T02:34:32.572Z,90.83
2022-10-09T02:37:35.306Z,91.46
2022-10-09T02:40:37.950Z,91.27
2022-10-09T02:43:40.706Z,90.62
2022-10-09T02:46:44.945Z,90.97
2022-10-09T02:49:47.678Z,90.85
2022-10-09T02:52:50.535Z,91.13
2022-10-09T02:55:53.385Z,91.45
2022-10-09T02:58:56.240Z,91.44
2022-10-09T03:02:00.610Z,90.95
2022-10-09T03:05:03.472Z,91.45
2022-10-09T03:08:06.034Z,91.57
2022-10-09T03:11:09.318Z,91.71
2022-10-09T03:14:12.008Z,91.17
2022-10-09T03:17:16.104Z,91.97
2022-10-09T03:20:19.129Z,91.48
2022-10-09T03:23:21.817Z,91.42
2022-10-09T03:26:26.212Z,91.32
2022-10-09T03:29:28.931Z,91.32
2022-10-09T03:32:33.038Z,91.58
2022-10-09T03:35:35.842Z,91.30
2022-10-09T03:38:38.736Z,92.71
2022-10-09T03:41:41.321Z,92.60
2022-10-09T03:44:44.112Z,92.38
2022-10-09T03:47:48.044Z,92.03
2022-10-09T03:50:50.725Z,92.33
2022-10-09T03:53:53.488Z,91.48
2022-10-09T03:56:56.137Z,91.81
2022-10-09T03:59:58.804Z,91.89
2022-10-09T04:03:02.956Z,91.38
2022-10-09T04:06:06.125Z,92.31
2022-10-09T04:09:09.438Z,92.07
2022-10-09T04:12:12.129Z,91.56
2022-10-09T04:15:14.903Z,91.59
2022-10-09T04:18:19.070Z,91.86
2022-10-09T04:21:21.864Z,91.42
2022-10-09T04:24:24.537Z,91.88
2022-10-09T04:27:27.238Z,91.10
2022-10-09T04:30:29.888Z,92.20
2022-10-09T04:33:33.949Z,91.58
2022-10-09T04:36:36.688Z,92.12
2022-10-09T04:39:39.352Z,91.67
2022-10-09T04:42:41.979Z,91.43
2022-10-09T04:45:44.810Z,91.50
2022-10-09T04:48:49.186Z,91.62
2022-10-09T04:51:51.886Z,91.55
2022-10-09T04:54:54.529Z,92.00
2022-10-09T04:57:57.726Z,91.83
2022-10-09T05:01:00.500Z,91.95
2022-10-09T05:04:04.595Z,91.88
2022-10-09T05:07:07.249Z,91.67
2022-10-09T05:10:10.193Z,92.01
2022-10-09T05:13:12.893Z,91.65
2022-10-09T05:16:20.021Z,90.91
2022-10-09T05:19:24.354Z,91.00
2022-10-09T05:22:27.034Z,91.85
2022-10-09T05:25:29.655Z,91.89
2022-10-09T05:28:32.625Z,91.16
2022-10-09T05:31:35.488Z,91.15
2022-10-09T05:34:39.745Z,92.10
2022-10-09T05:37:45.268Z,91.66
2022-10-09T05:40:52.468Z,91.67
2022-10-09T05:43:55.239Z,91.67
2022-10-09T05:46:57.977Z,91.33
2022-10-09T05:50:03.283Z,91.63
2022-10-09T05:53:06.145Z,92.08
2022-10-09T05:56:17.532Z,92.00
2022-10-09T05:59:22.905Z,92.24
2022-10-09T06:02:25.640Z,92.89
2022-10-09T06:05:29.617Z,92.70
2022-10-09T06:08:33.860Z,92.11
2022-10-09T06:11:39.085Z,91.13
2022-10-09T06:14:41.876Z,91.37
2022-10-09T06:17:44.701Z,91.69
2022-10-09T06:20:55.609Z,90.89
2022-10-09T06:23:59.911Z,90.81
2022-10-09T06:27:02.568Z,90.28
2022-10-09T06:30:05.740Z,90.88
2022-10-09T06:33:08.591Z,90.44
2022-10-09T06:36:13.964Z,90.55
2022-10-09T06:39:16.829Z,90.61
2022-10-09T06:42:19.525Z,90.22
2022-10-09T06:45:22.501Z,90.57
2022-10-09T06:48:25.408Z,90.22
2022-10-09T06:51:30.317Z,90.44
2022-10-09T06:54:33.013Z,89.79
2022-10-09T06:57:35.661Z,90.07
2022-10-09T07:00:38.364Z,90.22
2022-10-09T07:03:42.770Z,90.41
2022-10-09T07:06:48.137Z,89.82
2022-10-09T07:09:52.808Z,90.28
2022-10-09T07:12:55.551Z,89.55
2022-10-09T07:16:01.371Z,90.20
2022-10-09T07:19:11.008Z,89.51
2022-10-09T07:22:15.154Z,89.20
2022-10-09T07:25:18.065Z,89.42
2022-10-09T07:28:20.718Z,89.04
2022-10-09T07:31:24.098Z,88.67
2022-10-09T07:34:27.035Z,88.64
2022-10-09T07:37:31.287Z,88.83
2022-10-09T07:40:35.396Z,88.54
2022-10-09T07:43:38.990Z,87.99
2022-10-09T07:46:41.811Z,86.90
2022-10-09T07:49:44.621Z,86.75
2022-10-09T07:52:48.967Z,86.34
2022-10-09T07:55:51.830Z,85.29
2022-10-09T07:58:56.159Z,84.80
2022-10-09T08:01:58.812Z,85.47
2022-10-09T08:05:01.712Z,84.12
2022-10-09T08:08:05.746Z,83.37
2022-10-09T08:11:12.702Z,81.69
2022-10-09T08:14:19.263Z,80.70
2022-10-09T08:17:22.338Z,80.18
2022-10-09T08:20:25.123Z,79.34
2022-10-09T08:23:29.323Z,77.89
2022-10-09T08:26:32.612Z,78.27
2022-10-09T08:29:39.946Z,77.34
2022-10-09T08:32:43.190Z,77.10
2022-10-09T08:35:45.845Z,75.36
2022-10-09T08:38:50.226Z,74.01
2022-10-09T08:41:54.090Z,73.99
2022-10-09T08:44:56.840Z,72.99
2022-10-09T08:48:02.389Z,70.50
2022-10-09T08:51:09.307Z,69.69
2022-10-09T08:54:16.990Z,68.21
2022-10-09T08:57:20.783Z,66.95
2022-10-09T09:00:25.354Z,66.14
2022-10-09T09:03:40.908Z,64.79
2022-10-09T09:06:47.097Z,64.29
2022-10-09T09:09:54.306Z,62.47
2022-10-09T09:13:02.889Z,62.43
2022-10-09T09:16:09.932Z,61.31
2022-10-09T09:19:21.228Z,60.17
2022-10-09T09:22:24.609Z,58.34
2022-10-09T09:25:32.526Z,57.79
2022-10-09T09:28:35.859Z,56.94
2022-10-09T09:31:39.286Z,54.62
2022-10-09T09:34:42.452Z,53.73
2022-10-09T09:37:45.105Z,52.92
2022-10-09T09:40:49.215Z,53.56
2022-10-09T09:43:52.677Z,51.91
2022-10-09T09:46:55.412Z,50.02
2022-10-09T09:49:59.616Z,49.83
2022-10-09T09:53:04.798Z,49.78
2022-10-09T09:56:09.144Z,49.60
2022-10-09T09:59:27.197Z,49.15
2022-10-09T10:02:30.042Z,50.39
2022-10-09T10:05:38.522Z,50.10
2022-10-09T10:08:41.348Z,49.87
2022-10-09T10:11:47.625Z,48.84
2022-10-09T10:14:51.541Z,48.55
2022-10-09T10:18:00.427Z,47.86
2022-10-09T10:21:04.973Z,48.03
2022-10-09T10:24:13.161Z,47.54
2022-10-09T10:27:25.087Z,46.86
2022-10-09T10:30:27.826Z,46.04
2022-10-09T10:33:31.471Z,45.56
2022-10-09T10:36:35.455Z,46.06
2022-10-09T10:39:41.581Z,45.23
2022-10-09T10:42:59.418Z,44.62
2022-10-09T10:46:07.289Z,44.87
2022-10-09T10:49:23.456Z,44.71
2022-10-09T10:52:39.924Z,44.62
2022-10-09T10:55:50.369Z,43.63
2022-10-09T10:59:00.591Z,43.17
2022-10-09T11:02:26.413Z,43.00
2022-10-09T11:05:40.449Z,43.27
2022-10-09T11:08:54.366Z,42.74
2022-10-09T11:12:02.575Z,42.31
2022-10-09T11:15:14.322Z,41.54
2022-10-09T11:18:28.548Z,41.78
2022-10-09T11:21:42.611Z,41.40
2022-10-09T11:25:04.615Z,41.26
2022-10-09T11:28:11.859Z,40.38
2022-10-09T11:31:18.273Z,41.13
2022-10-09T11:34:24.317Z,41.16
2022-10-09T11:37:30.873Z,41.47
2022-10-09T11:40:35.475Z,41.64
2022-10-09T11:43:54.767Z,40.71
2022-10-09T11:47:09.519Z,40.92
2022-10-09T11:50:28.375Z,41.14
2022-10-09T11:53:34.405Z,40.60
2022-10-09T11:56:37.340Z,40.30
2022-10-09T11:59:42.856Z,40.26
2022-10-09T12:02:57.440Z,39.64
2022-10-09T12:06:09.909Z,40.32
2022-10-09T12:09:21.083Z,40.87
2022-10-09T12:12:24.500Z,39.58
2022-10-09T12:15:38.713Z,39.57
2022-10-09T12:18:46.928Z,38.25
2022-10-09T12:21:53.714Z,38.99
2022-10-09T12:24:58.521Z,39.51
2022-10-09T12:28:02.027Z,38.87
2022-10-09T12:31:06.919Z,38.40
2022-10-09T12:34:19.224Z,38.01
2022-10-09T12:37:23.961Z,37.92
2022-10-09T12:40:28.893Z,37.71
2022-10-09T12:43:32.364Z,36.67
2022-10-09T12:46:37.946Z,29.06
2022-10-09T12:49:41.989Z,24.88
2022-10-09T12:52:49.555Z,23.38
2022-10-09T12:56:12.105Z,19.15
2022-10-09T12:59:16.740Z,18.69
2022-10-09T13:02:20.565Z,17.64
2022-10-09T13:05:24.761Z,15.08
2022-10-09T13:08:30.606Z,16.83
2022-10-09T13:11:38.004Z,18.38
2022-10-09T13:14:43.958Z,15.89
2022-10-09T13:17:46.997Z,14.58
2022-10-09T13:21:01.853Z,14.88
2022-10-09T13:24:10.288Z,13.71
2022-10-09T13:27:14.605Z,15.05
2022-10-09T13:30:17.425Z,14.48
2022-10-09T13:33:20.147Z,14.08
2022-10-09T13:36:24.355Z,17.47
2022-10-09T13:39:27.296Z,18.20
2022-10-09T13:42:31.358Z,19.79
2022-10-09T13:45:34.119Z,19.39
2022-10-09T13:48:37.982Z,16.67
2022-10-09T13:51:42.091Z,15.05
2022-10-09T13:54:45.030Z,13.57
2022-10-09T13:57:47.864Z,12.84
2022-10-09T14:00:51.034Z,13.91
2022-10-09T14:03:54.118Z,19.22
2022-10-09T14:06:58.332Z,22.62
2022-10-09T14:10:00.981Z,21.98
2022-10-09T14:13:03.812Z,19.26
2022-10-09T14:16:07.751Z,16.70
2022-10-09T14:19:10.761Z,15.20
2022-10-09T14:22:14.898Z,14.96
2022-10-09T14:25:18.007Z,16.13
2022-10-09T14:28:20.927Z,18.39
2022-10-09T14:31:23.816Z,19.45
2022-10-09T14:34:26.619Z,19.00
2022-10-09T14:37:41.249Z,17.59
2022-10-09T14:40:45.500Z,16.32
2022-10-09T14:43:55.223Z,17.96
2022-10-09T14:46:59.105Z,15.86
2022-10-09T14:50:02.389Z,15.61
2022-10-09T14:53:06.576Z,14.12
2022-10-09T14:56:11.617Z,12.60
2022-10-09T14:59:15.191Z,13.30
2022-10-09T15:02:19.125Z,13.62
2022-10-09T15:05:21.804Z,13.78
2022-10-09T15:08:25.964Z,17.65
2022-10-09T15:11:29.533Z,20.38
2022-10-09T15:14:32.312Z,21.34
2022-10-09T15:17:35.071Z,22.06
2022-10-09T15:20:37.902Z,18.63
2022-10-09T15:23:42.176Z,17.93
2022-10-09T15:26:44.865Z,17.77
2022-10-09T15:29:47.608Z,19.76
2022-10-09T15:32:50.372Z,20.19
2022-10-09T15:35:53.925Z,20.66
2022-10-09T15:39:00.752Z,20.24
2022-10-09T15:42:03.563Z,19.72
2022-10-09T15:45:07.380Z,20.18
2022-10-09T15:48:14.598Z,20.94
2022-10-09T15:51:17.901Z,24.46
2022-10-09T15:54:23.195Z,32.26
2022-10-09T15:57:26.010Z,38.92
2022-10-09T16:00:49.398Z,42.18
2022-10-09T16:03:52.569Z,44.85
2022-10-09T16:06:55.276Z,46.23
2022-10-09T16:09:59.339Z,47.12
2022-10-09T16:13:02.118Z,48.28
2022-10-09T16:16:06.981Z,49.21
2022-10-09T16:19:09.749Z,50.43
2022-10-09T16:22:12.579Z,51.08
2022-10-09T16:25:17.072Z,52.02
2022-10-09T16:28:19.860Z,52.64
2022-10-09T16:31:24.552Z,53.39
2022-10-09T16:34:27.290Z,53.99
2022-10-09T16:37:30.038Z,55.08
2022-10-09T16:41:01.275Z,55.39
2022-10-09T16:43:57.828Z,56.46
2022-10-09T16:47:00.794Z,57.32
2022-10-09T16:50:03.836Z,58.18
2022-10-09T16:53:06.518Z,58.48
2022-10-09T16:56:12.271Z,59.24
2022-10-09T16:59:15.069Z,60.13
2022-10-09T17:02:17.840Z,60.91
2022-10-09T17:05:21.050Z,61.64
2022-10-09T17:08:24.005Z,62.60
2022-10-09T17:11:30.706Z,62.77
2022-10-09T17:14:35.044Z,63.23
2022-10-09T17:17:38.499Z,63.82
2022-10-09T17:20:41.481Z,64.42
2022-10-09T17:23:44.829Z,64.68
2022-10-09T17:26:48.812Z,65.21
2022-10-09T17:29:51.625Z,65.30
2022-10-09T17:32:54.424Z,66.15
2022-10-09T17:35:57.152Z,66.42
2022-10-09T17:39:00.442Z,66.79
2022-10-09T17:42:04.589Z,67.46
2022-10-09T17:45:08.824Z,68.45
2022-10-09T17:48:11.538Z,68.11
2022-10-09T17:51:17.157Z,68.52
2022-10-09T17:54:19.843Z,70.03
2022-10-09T17:57:24.137Z,70.00
2022-10-09T18:00:26.805Z,69.81
2022-10-09T18:03:32.421Z,69.74
2022-10-09T18:06:36.431Z,70.06
2022-10-09T18:09:39.666Z,70.83
2022-10-09T18:12:44.005Z,71.04
2022-10-09T18:15:46.860Z,71.60
2022-10-09T18:18:51.783Z,71.56
2022-10-09T18:21:54.533Z,72.08
2022-10-09T18:24:57.110Z,72.58
2022-10-09T18:28:01.523Z,72.59
2022-10-09T18:31:06.136Z,73.17
2022-10-09T18:34:09.194Z,73.09
2022-10-09T18:37:11.955Z,72.98
2022-10-09T18:40:14.986Z,73.04
2022-10-09T18:43:19.190Z,72.96
2022-10-09T18:46:24.784Z,73.32
2022-10-09T18:49:30.422Z,73.82
2022-10-09T18:52:33.102Z,73.94
2022-10-09T18:55:35.784Z,74.34
2022-10-09T18:58:41.116Z,74.74
2022-10-09T19:01:44.121Z,76.18
2022-10-09T19:04:46.876Z,75.69
2022-10-09T19:07:49.654Z,76.02
2022-10-09T19:10:53.391Z,74.93
2022-10-09T19:13:59.617Z,76.01
2022-10-09T19:17:02.328Z,76.26
2022-10-09T19:20:05.271Z,76.00
2022-10-09T19:23:08.540Z,76.70
2022-10-09T19:26:13.498Z,76.60
2022-10-09T19:29:17.864Z,76.92
2022-10-09T19:32:23.805Z,77.35
2022-10-09T19:35:27.035Z,77.04
2022-10-09T19:38:30.133Z,77.10
2022-10-09T19:41:32.863Z,76.92
2022-10-09T19:44:37.112Z,77.51
2022-10-09T19:47:39.958Z,77.28
2022-10-09T19:50:43.025Z,77.19
2022-10-09T19:53:46.048Z,77.25
2022-10-09T19:56:48.621Z,76.66
2022-10-09T19:59:52.722Z,76.78
2022-10-09T20:02:55.421Z,76.64
2022-10-09T20:06:02.659Z,75.49
2022-10-09T20:09:06.164Z,74.74
2022-10-09T20:12:09.672Z,73.45
2022-10-09T20:15:14.350Z,73.18
2022-10-09T20:18:17.122Z,73.02
2022-10-09T20:21:21.108Z,72.30
2022-10-09T20:24:23.997Z,72.05
2022-10-09T20:27:26.833Z,71.14
2022-10-09T20:30:30.876Z,70.90
2022-10-09T20:33:33.613Z,69.64
2022-10-09T20:36:38.024Z,68.87
2022-10-09T20:39:40.800Z,68.45
2022-10-09T20:42:43.412Z,67.78
2022-10-09T20:45:47.571Z,67.21
2022-10-09T20:48:51.605Z,66.77
2022-10-09T20:51:55.343Z,66.95
2022-10-09T20:54:58.149Z,66.06
2022-10-09T20:58:02.117Z,66.44
2022-10-09T21:01:07.227Z,65.53
2022-10-09T21:04:11.081Z,65.53
2022-10-09T21:07:13.848Z,65.38
2022-10-09T21:10:16.888Z,65.36
2022-10-09T21:13:19.664Z,65.72
2022-10-09T21:16:24.905Z,65.45
2022-10-09T21:19:27.759Z,64.70
2022-10-09T21:22:30.401Z,65.22
2022-10-09T21:25:33.247Z,64.85
2022-10-09T21:28:36.227Z,65.16
2022-10-09T21:31:40.273Z,64.79
2022-10-09T21:34:43.078Z,64.81
2022-10-09T21:37:45.758Z,64.96
2022-10-09T21:40:49.310Z,65.17
2022-10-09T21:43:51.890Z,65.43
2022-10-09T21:46:55.849Z,65.19
2022-10-09T21:49:58.776Z,65.40
2022-10-09T21:53:01.594Z,65.49
2022-10-09T21:56:04.770Z,65.76
2022-10-09T21:59:07.465Z,65.32
2022-10-09T22:02:11.576Z,66.14
2022-10-09T22:05:14.321Z,66.19
2022-10-09T22:08:16.926Z,66.41
2022-10-09T22:11:20.026Z,66.41
2022-10-09T22:14:22.722Z,66.36
2022-10-09T22:17:26.723Z,67.17
2022-10-09T22:20:29.367Z,67.44
2022-10-09T22:23:32.153Z,67.67
2022-10-09T22:26:34.757Z,67.85
2022-10-09T22:29:38.248Z,68.19
2022-10-09T22:32:42.177Z,69.21
2022-10-09T22:35:45.726Z,69.62
2022-10-09T22:38:48.188Z,71.14
2022-10-09T22:41:50.954Z,71.41
2022-10-09T22:44:53.706Z,71.83
2022-10-09T22:47:57.634Z,72.77
2022-10-09T22:51:02.585Z,72.38
2022-10-09T22:54:05.896Z,73.75
2022-10-09T22:57:08.494Z,73.30
2022-10-09T23:00:12.810Z,73.86
2022-10-09T23:03:16.857Z,74.29
2022-10-09T23:06:20.876Z,74.13
2022-10-09T23:09:25.115Z,74.97
2022-10-09T23:12:27.712Z,74.86
2022-10-09T23:15:30.450Z,75.90
2022-10-09T23:18:37.041Z,76.47
2022-10-09T23:21:41.989Z,76.90
2022-10-09T23:24:44.850Z,77.57
2022-10-09T23:27:47.547Z,77.76
2022-10-09T23:30:50.262Z,78.07
2022-10-09T23:33:54.791Z,77.35
2022-10-09T23:36:57.382Z,77.14
2022-10-09T23:40:00.121Z,77.43
2022-10-09T23:43:02.811Z,77.71
2022-10-09T23:46:07.690Z,78.12
2022-10-09T23:49:11.978Z,77.61
2022-10-09T23:52:14.668Z,78.12
2022-10-09T23:55:17.363Z,77.92
2022-10-09T23:58:21.147Z,77.06
